Time;durP1;ratioP1;P1;durP2;ratioP2;P2;SDS_P1;SDS_P2;PMS_P1;PMS_P2;Temp;Humidity;BMP_temperature;BMP_pressure;BME280_temperature;BME280_humidity;BME280_pressure;Samples;Min_cycle;Max_cycle;Signal;HPM_P1;HPM_P2
2022/02/23 00:00:56;;;;;;;22.20;9.30;;;;;;;0.43;81.84;100065.61;89398;1279;94327;-76
2022/02/23 00:03:04;;;;;;;20.50;9.40;;;;;;;0.41;81.88;100063.29;89532;1277;80264;-75
2022/02/23 00:05:10;;;;;;;20.40;9.30;;;;;;;0.38;81.80;100062.34;89520;1277;81718;-62
2022/02/23 00:07:16;;;;;;;20.00;10.20;;;;;;;0.33;81.84;100059.38;89499;1277;98533;-62
2022/02/23 00:09:25;;;;;;;19.00;10.10;;;;;;;0.34;81.91;100060.38;89533;1277;89220;-75
2022/02/23 00:11:30;;;;;;;18.30;9.60;;;;;;;0.30;81.90;100060.73;89383;1279;95432;-76
2022/02/23 00:13:37;;;;;;;18.10;9.60;;;;;;;0.25;82.03;100060.31;89377;1279;79704;-64
2022/02/23 00:15:43;;;;;;;18.60;9.60;;;;;;;0.24;82.07;100052.65;89510;1277;81244;-62
2022/02/23 00:17:49;;;;;;;17.30;9.60;;;;;;;0.22;82.04;100050.69;89389;1279;98617;-62
2022/02/23 00:19:59;;;;;;;19.20;9.90;;;;;;;0.19;81.96;100046.28;89483;1277;86779;-62
2022/02/23 00:22:05;;;;;;;18.90;10.10;;;;;;;0.19;82.05;100045.28;89488;1277;94610;-62
2022/02/23 00:24:11;;;;;;;22.40;10.40;;;;;;;0.15;82.07;100043.97;89486;1277;79697;-79
2022/02/23 00:26:20;;;;;;;19.80;9.30;;;;;;;0.16;82.16;100044.59;89505;1277;80859;-78
2022/02/23 00:28:29;;;;;;;18.80;8.90;;;;;;;0.14;82.22;100044.10;89388;1279;97604;-76
2022/02/23 00:30:37;;;;;;;23.30;10.10;;;;;;;0.09;82.32;100039.02;89513;1277;87942;-76
2022/02/23 00:32:43;;;;;;;21.40;9.50;;;;;;;0.14;82.48;100034.55;89476;1277;95096;-76
2022/02/23 00:34:50;;;;;;;16.50;8.40;;;;;;;0.18;82.45;100029.60;89388;1279;79655;-62
2022/02/23 00:36:58;;;;;;;20.70;8.70;;;;;;;0.17;82.51;100023.80;89511;1277;83090;-62
2022/02/23 00:39:04;;;;;;;16.30;7.70;;;;;;;0.15;82.56;100029.30;89377;1279;99431;-76
2022/02/23 00:41:10;;;;;;;17.50;8.60;;;;;;;0.16;82.58;100024.48;89476;1277;88977;-76
2022/02/23 00:43:15;;;;;;;19.30;8.70;;;;;;;0.18;82.63;100025.27;89502;1277;94377;-77
2022/02/23 00:45:21;;;;;;;20.00;9.50;;;;;;;0.20;82.78;100022.46;89496;1277;79428;-79
2022/02/23 00:47:27;;;;;;;20.70;9.80;;;;;;;0.22;82.57;100017.02;89482;1277;82832;-77
2022/02/23 00:49:32;;;;;;;16.60;9.10;;;;;;;0.22;82.67;100014.30;89498;1277;100426;-63
2022/02/23 00:51:38;;;;;;;18.20;8.40;;;;;;;0.24;82.71;100015.27;89505;1277;89060;-62
2022/02/23 00:53:43;;;;;;;16.60;8.50;;;;;;;0.26;82.67;100014.14;89473;1277;95421;-63
2022/02/23 00:55:49;;;;;;;19.50;8.80;;;;;;;0.30;83.03;100007.60;89497;1277;81848;-63
2022/02/23 00:57:55;;;;;;;16.50;8.00;;;;;;;0.33;82.96;100005.92;89508;1277;83851;-63
2022/02/23 01:00:04;;;;;;;20.00;8.80;;;;;;;0.33;82.93;100005.21;89493;1277;99675;-78
2022/02/23 01:02:10;;;;;;;18.40;9.60;;;;;;;0.35;82.92;100002.26;89486;1277;89319;-78
2022/02/23 01:04:19;;;;;;;19.20;8.70;;;;;;;0.35;82.71;99997.39;89516;1277;96099;-63
2022/02/23 01:06:24;;;;;;;22.50;8.90;;;;;;;0.37;82.83;99999.52;89502;1277;79291;-63
2022/02/23 01:08:33;;;;;;;17.00;7.90;;;;;;;0.37;82.67;99996.67;89482;1277;81446;-72
2022/02/23 01:10:42;;;;;;;18.60;8.80;;;;;;;0.38;82.77;99999.45;89497;1277;98396;-63
2022/02/23 01:12:48;;;;;;;22.70;9.60;;;;;;;0.40;82.90;100001.21;89476;1277;89102;-62
2022/02/23 01:14:53;;;;;;;16.90;8.60;;;;;;;0.41;82.87;99999.86;89499;1277;95419;-78
2022/02/23 01:16:58;;;;;;;19.30;9.20;;;;;;;0.42;82.91;99995.54;89492;1277;78676;-78
2022/02/23 01:19:05;;;;;;;20.20;8.80;;;;;;;0.43;82.93;99991.41;89483;1280;80915;-77
2022/02/23 01:21:14;;;;;;;23.30;8.80;;;;;;;0.41;83.03;99985.37;89485;1277;98057;-76
2022/02/23 01:23:20;;;;;;;19.80;8.70;;;;;;;0.40;82.88;99984.39;89469;1277;88783;-77
2022/02/23 01:25:31;;;;;;;17.90;8.10;;;;;;;0.38;82.81;99981.55;89494;1277;95301;-77
2022/02/23 01:27:37;;;;;;;17.70;8.10;;;;;;;0.35;82.74;99983.07;89462;1277;81390;-77
2022/02/23 01:29:45;;;;;;;19.00;8.30;;;;;;;0.32;82.83;99978.90;89494;1277;82420;-77
2022/02/23 01:31:51;;;;;;;17.90;8.80;;;;;;;0.31;82.88;99976.20;89419;1280;99636;-78
2022/02/23 01:33:56;;;;;;;24.10;9.40;;;;;;;0.34;83.05;99971.99;89487;1277;88089;-62
2022/02/23 01:36:02;;;;;;;21.00;9.40;;;;;;;0.37;83.16;99966.06;89466;1277;93732;-62
2022/02/23 01:38:08;;;;;;;22.50;9.50;;;;;;;0.42;83.12;99960.80;89492;1277;80245;-61
2022/02/23 01:40:14;;;;;;;23.00;9.00;;;;;;;0.46;83.08;99954.77;89532;1277;81901;-62
2022/02/23 01:42:20;;;;;;;23.60;9.90;;;;;;;0.50;83.17;99957.61;89295;1279;100357;-62
2022/02/23 01:44:28;;;;;;;19.90;8.40;;;;;;;0.56;83.21;99960.42;89472;1278;88845;-76
2022/02/23 01:46:34;;;;;;;22.60;8.80;;;;;;;0.59;83.12;99951.80;89512;1278;96017;-78
2022/02/23 01:48:40;;;;;;;17.30;8.70;;;;;;;0.64;83.27;99951.31;89405;1279;79724;-77
2022/02/23 01:50:46;;;;;;;18.40;8.40;;;;;;;0.65;83.48;99946.02;89420;1278;81070;-78
2022/02/23 01:52:51;;;;;;;21.20;8.40;;;;;;;0.68;83.48;99945.59;89452;1279;100367;-77
2022/02/23 01:54:58;;;;;;;24.60;8.60;;;;;;;0.71;83.54;99944.81;89497;1277;88049;-62
2022/02/23 01:57:04;;;;;;;17.40;8.20;;;;;;;0.78;83.39;99943.95;89470;1277;95396;-63
2022/02/23 01:59:12;;;;;;;22.30;8.70;;;;;;;0.83;83.36;99942.98;89407;1280;78011;-62
2022/02/23 02:01:19;;;;;;;23.90;8.30;;;;;;;0.89;83.51;99943.69;89404;1278;82805;-62
2022/02/23 02:03:29;;;;;;;16.40;7.50;;;;;;;0.92;83.50;99938.65;89476;1277;100155;-62
2022/02/23 02:05:35;;;;;;;17.50;7.40;;;;;;;0.97;83.51;99937.46;89496;1278;87005;-77
2022/02/23 02:07:44;;;;;;;23.20;8.00;;;;;;;0.96;83.46;99934.27;89487;1278;93730;-77
2022/02/23 02:09:49;;;;;;;21.60;7.70;;;;;;;1.02;83.50;99930.02;89487;1278;78348;-62
2022/02/23 02:11:55;;;;;;;19.40;7.60;;;;;;;1.08;83.53;99924.34;89411;1279;83183;-62
2022/02/23 02:14:01;;;;;;;20.00;7.90;;;;;;;1.13;83.46;99924.89;89484;1277;100085;-62
2022/02/23 02:16:10;;;;;;;19.30;8.00;;;;;;;1.20;83.54;99922.55;89507;1277;88717;-62
2022/02/23 02:18:18;;;;;;;17.80;7.60;;;;;;;1.27;83.44;99919.70;89476;1278;95781;-62
2022/02/23 02:20:27;;;;;;;17.60;7.50;;;;;;;1.32;83.40;99922.11;89510;1277;81407;-78
2022/02/23 02:22:33;;;;;;;14.40;6.60;;;;;;;1.38;83.45;99923.30;89507;1277;82066;-78
2022/02/23 02:24:43;;;;;;;16.50;7.10;;;;;;;1.43;83.37;99924.96;89487;1277;99038;-63
2022/02/23 02:26:52;;;;;;;15.70;6.30;;;;;;;1.46;83.29;99919.66;89409;1279;88235;-62
2022/02/23 02:28:57;;;;;;;21.40;7.10;;;;;;;1.48;83.26;99915.45;89494;1277;93290;-79
2022/02/23 02:31:03;;;;;;;19.40;7.40;;;;;;;1.50;83.22;99905.31;89498;1278;78859;-79
2022/02/23 02:33:09;;;;;;;18.10;7.00;;;;;;;1.55;83.18;99898.30;89497;1277;82098;-78
2022/02/23 02:35:17;;;;;;;20.00;6.80;;;;;;;1.59;83.02;99894.48;89498;1277;101069;-63
2022/02/23 02:37:26;;;;;;;20.40;7.40;;;;;;;1.63;83.06;99889.73;89448;1277;87922;-64
2022/02/23 02:39:35;;;;;;;20.50;6.50;;;;;;;1.65;83.04;99890.77;89477;1277;94950;-63
2022/02/23 02:41:40;;;;;;;20.20;7.20;;;;;;;1.66;82.94;99893.16;89466;1277;81752;-63
2022/02/23 02:43:50;;;;;;;22.90;9.60;;;;;;;1.69;82.87;99892.13;89413;1279;80151;-80
2022/02/23 02:45:58;;;;;;;21.80;8.30;;;;;;;1.70;82.93;99893.13;89481;1278;99811;-79
2022/02/23 02:48:07;;;;;;;22.60;7.80;;;;;;;1.71;82.82;99895.45;89491;1278;88345;-79
2022/02/23 02:50:13;;;;;;;19.80;7.40;;;;;;;1.75;82.74;99896.14;89436;1279;95432;-79
2022/02/23 02:52:22;;;;;;;19.20;7.30;;;;;;;1.75;82.68;99895.14;89415;1279;81734;-79
2022/02/23 02:54:31;;;;;;;20.30;8.20;;;;;;;1.74;82.65;99890.20;89494;1277;82711;-79
2022/02/23 02:56:40;;;;;;;21.40;8.30;;;;;;;1.77;82.42;99885.11;89461;1278;99982;-79
2022/02/23 02:58:52;;;;;;;18.50;7.90;;;;;;;1.78;82.59;99882.44;89453;1277;89418;-79
2022/02/23 03:01:00;;;;;;;19.50;8.50;;;;;;;1.78;82.42;99880.08;89425;1278;95755;-79
2022/02/23 03:03:09;;;;;;;22.90;9.10;;;;;;;1.79;82.36;99879.08;89467;1278;79022;-79
2022/02/23 03:05:15;;;;;;;24.10;8.40;;;;;;;1.80;82.32;99875.66;89508;1278;81404;-63
2022/02/23 03:07:21;;;;;;;21.70;8.10;;;;;;;1.80;82.37;99871.76;89481;1278;99525;-63
2022/02/23 03:09:29;;;;;;;27.10;8.70;;;;;;;1.78;82.25;99867.95;89489;1278;89902;-80
2022/02/23 03:11:35;;;;;;;22.50;7.80;;;;;;;1.77;82.28;99863.68;89418;1280;95210;-80
2022/02/23 03:13:42;;;;;;;19.70;7.50;;;;;;;1.76;82.25;99861.41;89489;1278;78600;-79
2022/02/23 03:15:47;;;;;;;22.50;7.70;;;;;;;1.76;82.31;99862.67;89479;1277;81746;-79
2022/02/23 03:17:53;;;;;;;17.00;7.10;;;;;;;1.78;82.34;99863.20;89495;1278;100744;-79
2022/02/23 03:19:58;;;;;;;23.30;7.00;;;;;;;1.79;82.37;99858.54;89444;1278;88429;-62
2022/02/23 03:22:05;;;;;;;21.50;7.40;;;;;;;1.82;82.19;99861.45;89443;1277;95390;-63
2022/02/23 03:24:11;;;;;;;20.60;8.20;;;;;;;1.86;82.29;99854.52;89313;1279;79802;-63
2022/02/23 03:26:16;;;;;;;22.40;7.20;;;;;;;1.90;82.23;99853.73;89412;1277;82866;-63
2022/02/23 03:28:22;;;;;;;18.20;6.60;;;;;;;1.95;82.05;99853.80;89338;1279;99599;-63
2022/02/23 03:30:28;;;;;;;19.90;6.70;;;;;;;1.99;82.11;99853.75;89462;1280;89674;-78
2022/02/23 03:32:33;;;;;;;19.60;6.70;;;;;;;2.01;82.12;99852.86;89442;1277;93997;-79
2022/02/23 03:34:39;;;;;;;21.40;7.90;;;;;;;2.03;82.05;99853.88;89448;1278;81045;-80
2022/02/23 03:36:45;;;;;;;20.50;7.20;;;;;;;2.03;81.92;99855.65;89260;1278;224859;-79
2022/02/23 03:38:50;;;;;;;19.60;6.50;;;;;;;2.08;81.94;99853.04;89463;1278;99351;-79
2022/02/23 03:40:59;;;;;;;16.70;6.40;;;;;;;2.09;81.91;99853.86;89458;1278;88366;-79
2022/02/23 03:43:08;;;;;;;22.30;7.10;;;;;;;2.11;81.82;99852.02;89438;1278;95189;-80
2022/02/23 03:45:13;;;;;;;22.30;7.10;;;;;;;2.14;81.93;99848.88;89450;1278;80409;-78
2022/02/23 03:47:22;;;;;;;20.40;7.00;;;;;;;2.19;81.64;99853.95;89447;1278;80637;-79
2022/02/23 03:49:28;;;;;;;18.50;6.30;;;;;;;2.21;81.68;99844.11;89436;1278;99936;-79
2022/02/23 03:51:34;;;;;;;22.70;6.70;;;;;;;2.24;81.66;99841.64;89455;1277;87918;-79
2022/02/23 03:53:43;;;;;;;19.50;6.70;;;;;;;2.30;81.45;99837.50;89423;1278;94706;-78
2022/02/23 03:55:49;;;;;;;21.20;6.70;;;;;;;2.28;81.56;99833.09;89440;1277;79166;-79
2022/02/23 03:57:54;;;;;;;16.50;6.60;;;;;;;2.29;81.47;99830.67;89445;1278;80977;-78
2022/02/23 04:00:03;;;;;;;17.00;6.30;;;;;;;2.30;81.42;99830.64;89367;1279;99631;-79
2022/02/23 04:02:09;;;;;;;18.00;7.00;;;;;;;2.28;81.36;99830.65;89376;1279;88192;-79
2022/02/23 04:04:18;;;;;;;16.10;6.30;;;;;;;2.25;81.47;99828.45;89277;1279;94944;-62
2022/02/23 04:06:24;;;;;;;19.40;5.80;;;;;;;2.21;81.30;99830.08;89372;1279;80467;-62
2022/02/23 04:08:35;;;;;;;17.00;5.90;;;;;;;2.21;81.36;99829.40;89366;1279;80386;-62
2022/02/23 04:10:41;;;;;;;18.00;5.90;;;;;;;2.23;81.42;99821.04;89450;1277;99022;-77
2022/02/23 04:12:50;;;;;;;17.00;5.40;;;;;;;2.24;81.27;99820.71;89462;1278;89226;-78
2022/02/23 04:14:59;;;;;;;17.10;6.00;;;;;;;2.25;81.33;99821.50;89448;1277;92834;-78
2022/02/23 04:17:06;;;;;;;16.90;5.90;;;;;;;2.25;81.38;99818.09;89458;1278;79433;-77
2022/02/23 04:19:11;;;;;;;17.10;5.80;;;;;;;2.28;81.50;99817.50;89420;1279;80741;-62
2022/02/23 04:21:21;;;;;;;19.40;6.40;;;;;;;2.30;81.43;99814.45;89426;1278;99938;-62
2022/02/23 04:23:27;;;;;;;14.50;5.80;;;;;;;2.32;81.49;99812.98;89424;1278;87633;-63
2022/02/23 04:25:35;;;;;;;18.50;6.10;;;;;;;2.33;81.63;99813.41;89437;1278;95983;-77
2022/02/23 04:27:44;;;;;;;13.70;4.80;;;;;;;2.37;81.46;99811.59;89442;1278;78902;-78
2022/02/23 04:29:50;;;;;;;17.90;5.40;;;;;;;2.41;81.67;99810.67;89444;1278;81638;-63
2022/02/23 04:31:56;;;;;;;17.40;5.60;;;;;;;2.44;81.66;99811.59;89359;1279;99771;-63
2022/02/23 04:34:03;;;;;;;20.30;5.30;;;;;;;2.49;81.55;99811.17;89401;1279;88448;-77
2022/02/23 04:36:10;;;;;;;14.50;5.20;;;;;;;2.48;81.55;99804.45;89256;1279;95602;-75
2022/02/23 04:38:17;;;;;;;16.70;5.80;;;;;;;2.52;81.60;99804.58;89357;1279;79429;-76
2022/02/23 04:40:22;;;;;;;17.00;6.00;;;;;;;2.53;81.58;99801.67;89422;1279;79501;-77
2022/02/23 04:42:29;;;;;;;15.30;5.50;;;;;;;2.47;81.85;99801.79;89405;1279;97831;-76
2022/02/23 04:44:34;;;;;;;16.60;5.40;;;;;;;2.46;81.84;99795.05;89386;1279;88996;-78
2022/02/23 04:46:43;;;;;;;14.60;5.00;;;;;;;2.47;81.86;99793.95;89391;1279;94426;-79
2022/02/23 04:48:52;;;;;;;18.60;5.60;;;;;;;2.46;81.85;99791.52;89339;1279;81777;-66
2022/02/23 04:50:58;;;;;;;20.20;5.90;;;;;;;2.47;81.79;99791.20;89288;1280;80767;-64
2022/02/23 04:53:07;;;;;;;18.50;5.80;;;;;;;2.49;81.95;99795.11;89287;1279;99862;-65
2022/02/23 04:55:15;;;;;;;16.40;6.10;;;;;;;2.47;81.98;99788.61;89396;1279;89307;-78
2022/02/23 04:57:21;;;;;;;13.40;5.40;;;;;;;2.47;82.10;99787.23;89352;1279;94820;-78
2022/02/23 04:59:30;;;;;;;15.80;5.60;;;;;;;2.44;82.11;99790.30;89342;1279;79437;-78
2022/02/23 05:01:35;;;;;;;13.60;5.30;;;;;;;2.41;82.31;99787.77;89498;1277;83406;-78
2022/02/23 05:03:41;;;;;;;17.10;6.30;;;;;;;2.41;82.38;99787.77;89475;1278;99748;-67
2022/02/23 05:05:48;;;;;;;15.60;5.60;;;;;;;2.40;82.53;99787.66;89432;1277;88650;-65
2022/02/23 05:07:57;;;;;;;19.20;6.60;;;;;;;2.36;82.53;99788.59;89437;1278;92823;-66
2022/02/23 05:10:08;;;;;;;12.20;5.20;;;;;;;2.37;82.63;99787.63;89444;1278;81901;-63
2022/02/23 05:12:17;;;;;;;17.30;5.20;;;;;;;2.39;82.84;99789.20;89444;1278;83306;-64
2022/02/23 05:14:23;;;;;;;18.10;5.50;;;;;;;2.39;82.92;99788.62;89476;1278;97927;-63
2022/02/23 05:16:32;;;;;;;18.00;5.40;;;;;;;2.42;82.86;99787.48;89491;1278;89379;-63
2022/02/23 05:18:41;;;;;;;10.70;5.10;;;;;;;2.43;83.01;99787.19;89429;1278;94890;-75
2022/02/23 05:20:46;;;;;;;14.90;5.50;;;;;;;2.39;83.01;99786.16;89427;1278;79353;-76
2022/02/23 05:22:55;;;;;;;14.20;5.00;;;;;;;2.41;83.02;99784.94;89470;1278;83715;-77
2022/02/23 05:25:01;;;;;;;13.10;4.80;;;;;;;2.43;83.20;99779.20;89271;1280;98023;-66
2022/02/23 05:27:07;;;;;;;13.30;5.00;;;;;;;2.45;83.07;99782.77;89442;1278;88007;-66
2022/02/23 05:29:16;;;;;;;16.40;5.40;;;;;;;2.49;83.15;99782.83;89437;1278;93969;-78
2022/02/23 05:31:22;;;;;;;15.70;6.00;;;;;;;2.53;83.31;99777.15;89488;1277;78709;-72
2022/02/23 05:33:28;;;;;;;16.50;5.60;;;;;;;2.55;83.29;99770.21;89442;1278;81840;-81
2022/02/23 05:35:36;;;;;;;17.50;6.00;;;;;;;2.55;83.41;99771.38;89442;1278;99988;-84
2022/02/23 05:37:45;;;;;;;12.80;5.10;;;;;;;2.53;83.53;99769.45;89473;1277;88839;-81
2022/02/23 05:39:51;;;;;;;14.90;5.70;;;;;;;2.52;83.46;99773.89;89393;1279;92390;-78
2022/02/23 05:42:00;;;;;;;15.80;6.20;;;;;;;2.55;83.69;99777.67;89287;1279;79389;-78
2022/02/23 05:44:06;;;;;;;15.80;5.70;;;;;;;2.60;83.65;99779.63;89493;1278;83009;-76
2022/02/23 05:46:12;;;;;;;11.20;4.90;;;;;;;2.63;83.66;99779.31;89424;1279;100242;-76
2022/02/23 05:48:21;;;;;;;10.60;5.20;;;;;;;2.64;83.97;99773.91;89416;1279;86851;-73
2022/02/23 05:50:27;;;;;;;10.60;5.10;;;;;;;2.65;84.48;99771.14;89432;1279;95097;-74
2022/02/23 05:52:32;;;;;;;10.90;5.10;;;;;;;2.68;84.30;99768.47;89469;1278;78669;-76
2022/02/23 05:54:38;;;;;;;10.50;4.80;;;;;;;2.71;84.44;99765.48;89514;1278;82904;-84
2022/02/23 05:56:47;;;;;;;12.10;5.10;;;;;;;2.75;84.42;99762.66;89506;1278;98496;-81
2022/02/23 05:58:56;;;;;;;11.90;5.10;;;;;;;2.77;84.29;99762.89;89506;1277;88167;-79
2022/02/23 06:01:04;;;;;;;13.70;5.50;;;;;;;2.84;84.10;99767.41;89393;1279;97377;-79
2022/02/23 06:03:13;;;;;;;11.20;4.90;;;;;;;2.91;84.33;99765.75;89484;1278;78212;-80
2022/02/23 06:05:18;;;;;;;11.00;5.50;;;;;;;2.97;84.17;99763.77;89522;1279;83792;-80
2022/02/23 06:07:24;;;;;;;9.40;4.90;;;;;;;3.02;84.16;99767.83;89512;1278;99784;-81
2022/02/23 06:09:33;;;;;;;12.30;5.20;;;;;;;3.07;84.39;99768.27;89493;1278;88379;-81
2022/02/23 06:11:43;;;;;;;11.90;5.50;;;;;;;3.09;84.55;99767.02;89470;1278;95294;-83
2022/02/23 06:13:53;;;;;;;12.20;6.00;;;;;;;3.12;84.62;99766.15;89503;1278;79691;-69
2022/02/23 06:15:58;;;;;;;9.80;5.20;;;;;;;3.09;84.82;99771.20;89486;1277;82092;-68
2022/02/23 06:18:06;;;;;;;10.10;5.40;;;;;;;3.13;84.89;99775.77;89472;1277;98289;-69
2022/02/23 06:20:14;;;;;;;12.30;5.70;;;;;;;3.20;84.75;99776.25;89504;1278;89753;-69
2022/02/23 06:22:20;;;;;;;10.00;5.30;;;;;;;3.24;84.91;99778.02;89491;1278;96077;-68
2022/02/23 06:24:26;;;;;;;12.80;5.70;;;;;;;3.26;84.82;99785.33;89484;1277;81969;-69
2022/02/23 06:26:35;;;;;;;12.50;5.60;;;;;;;3.26;84.96;99787.03;89501;1277;80268;-69
2022/02/23 06:28:40;;;;;;;11.30;5.40;;;;;;;3.32;84.97;99792.87;89484;1277;100535;-81
2022/02/23 06:30:49;;;;;;;10.30;5.30;;;;;;;3.33;85.16;99795.88;89486;1278;89470;-83
2022/02/23 06:32:58;;;;;;;15.40;6.60;;;;;;;3.35;84.95;99799.50;89499;1277;95116;-81
2022/02/23 06:35:04;;;;;;;14.00;5.60;;;;;;;3.39;85.01;99800.31;89501;1277;80318;-69
2022/02/23 06:37:14;;;;;;;10.30;5.90;;;;;;;3.42;85.05;99803.49;89525;1280;81380;-69
2022/02/23 06:39:22;;;;;;;9.80;5.10;;;;;;;3.47;85.16;99807.64;89421;1279;100018;-85
2022/02/23 06:41:28;;;;;;;10.10;5.20;;;;;;;3.50;85.02;99811.37;89527;1277;88644;-79
2022/02/23 06:43:34;;;;;;;11.60;5.90;;;;;;;3.54;85.06;99814.36;89507;1278;91894;-70
2022/02/23 06:45:39;;;;;;;78.40;44.30;;;;;;;3.60;85.58;99812.83;89501;1277;78688;-68
2022/02/23 06:47:48;;;;;;;29.00;17.50;;;;;;;3.76;85.45;99816.70;89512;1278;83148;-68
2022/02/23 06:49:57;;;;;;;11.70;6.20;;;;;;;3.80;85.34;99821.09;89419;1279;98791;-82
2022/02/23 06:52:03;;;;;;;9.60;5.10;;;;;;;3.83;85.20;99824.14;89417;1279;89221;-80
2022/02/23 06:54:11;;;;;;;11.20;5.20;;;;;;;3.85;85.29;99823.98;89415;1279;93888;-68
2022/02/23 06:56:20;;;;;;;11.40;6.00;;;;;;;3.87;85.43;99833.28;89374;1279;80585;-66
2022/02/23 06:58:27;;;;;;;9.80;5.70;;;;;;;3.92;85.35;99840.11;89426;1278;81743;-66
2022/02/23 07:00:33;;;;;;;11.60;5.60;;;;;;;3.94;85.37;99842.52;89417;1279;100271;-67
2022/02/23 07:02:39;;;;;;;8.20;5.00;;;;;;;3.95;85.39;99843.11;89418;1279;89553;-66
2022/02/23 07:04:47;;;;;;;10.20;4.90;;;;;;;3.99;85.41;99843.92;89358;1279;95941;-82
2022/02/23 07:06:53;;;;;;;9.90;5.30;;;;;;;4.05;85.56;99845.31;89364;1279;79461;-85
2022/02/23 07:08:59;;;;;;;8.80;4.70;;;;;;;4.12;85.38;99853.13;89398;1279;79812;-84
2022/02/23 07:11:05;;;;;;;8.20;4.40;;;;;;;4.12;85.62;99859.65;89360;1279;100977;-81
2022/02/23 07:13:17;;;;;;;8.30;4.30;;;;;;;4.18;85.56;99862.66;89379;1279;87391;-82
2022/02/23 07:15:27;;;;;;;8.20;4.30;;;;;;;4.24;85.59;99863.25;89367;1279;95966;-82
2022/02/23 07:17:32;;;;;;;4.80;3.30;;;;;;;4.28;85.77;99874.40;89358;1279;80299;-82
2022/02/23 07:19:39;;;;;;;8.70;3.80;;;;;;;4.34;85.81;99883.27;89387;1279;83606;-66
2022/02/23 07:21:49;;;;;;;6.70;3.40;;;;;;;4.37;85.67;99886.16;89367;1279;98740;-67
2022/02/23 07:23:59;;;;;;;6.20;3.80;;;;;;;4.42;85.72;99882.73;89409;1279;86987;-67
2022/02/23 07:26:06;;;;;;;7.60;3.80;;;;;;;4.46;85.72;99891.50;89413;1280;96073;-67
2022/02/23 07:28:11;;;;;;;6.80;3.90;;;;;;;4.50;85.93;99901.25;89364;1279;79468;-68
2022/02/23 07:30:20;;;;;;;7.80;3.50;;;;;;;4.54;85.79;99902.26;89388;1281;83318;-67
2022/02/23 07:32:31;;;;;;;6.60;3.50;;;;;;;4.57;85.75;99910.46;89357;1281;97513;-66
2022/02/23 07:34:40;;;;;;;8.60;4.00;;;;;;;4.59;85.68;99912.73;89432;1280;89644;-85
2022/02/23 07:36:49;;;;;;;7.10;3.70;;;;;;;4.56;85.76;99922.55;89531;1280;94930;-84
2022/02/23 07:38:55;;;;;;;6.30;3.10;;;;;;;4.59;85.78;99926.34;89354;1281;79511;-78
2022/02/23 07:41:01;;;;;;;6.30;3.10;;;;;;;4.66;85.93;99927.88;89361;1279;82913;-77
2022/02/23 07:43:06;;;;;;;7.50;3.40;;;;;;;4.77;85.87;99928.51;89363;1279;99476;-80
2022/02/23 07:45:12;;;;;;;7.60;3.60;;;;;;;4.91;85.62;99934.89;89442;1280;87612;-67
2022/02/23 07:47:19;;;;;;;7.80;3.90;;;;;;;4.92;85.66;99944.55;89394;1279;94573;-68
2022/02/23 07:49:24;;;;;;;8.20;4.00;;;;;;;4.93;85.53;99949.10;89421;1279;78388;-66
2022/02/23 07:51:30;;;;;;;7.20;3.40;;;;;;;4.96;85.66;99955.73;89423;1280;80172;-67
2022/02/23 07:53:36;;;;;;;6.80;3.50;;;;;;;5.01;85.70;99954.85;89392;1279;97454;-77
2022/02/23 07:55:42;;;;;;;7.80;3.50;;;;;;;5.07;85.55;99959.67;89414;1279;85688;-77
2022/02/23 07:57:48;;;;;;;7.60;3.10;;;;;;;5.11;85.67;99959.11;89393;1279;95441;-78
2022/02/23 07:59:54;;;;;;;11.10;4.00;;;;;;;5.16;85.45;99966.38;89388;1280;80265;-66
2022/02/23 08:02:00;;;;;;;8.40;3.50;;;;;;;5.23;85.36;99969.37;89365;1280;83039;-67
2022/02/23 08:04:08;;;;;;;8.30;3.80;;;;;;;5.33;85.17;99972.85;89374;1280;99479;-66
2022/02/23 08:06:17;;;;;;;10.80;3.50;;;;;;;5.41;85.14;99974.38;89415;1281;86958;-66
2022/02/23 08:08:26;;;;;;;10.90;3.30;;;;;;;5.47;85.09;99979.38;89314;1279;95214;-66
2022/02/23 08:10:35;;;;;;;10.00;3.40;;;;;;;5.50;84.83;99984.11;89394;1280;80616;-66
2022/02/23 08:12:42;;;;;;;7.70;2.90;;;;;;;5.57;84.78;99988.84;89320;1281;80182;-68
2022/02/23 08:14:48;;;;;;;12.20;4.20;;;;;;;5.65;84.66;99989.52;89503;1277;99579;-68
2022/02/23 08:19:34;;;;;;;12.80;4.70;;;;;;;6.14;84.76;100001.42;89389;1281;92942;-82
2022/02/23 08:21:41;;;;;;;10.10;3.10;;;;;;;6.59;84.63;100011.11;89391;1281;79469;-83
2022/02/23 08:23:50;;;;;;;11.40;3.70;;;;;;;6.95;83.90;100010.36;89405;1279;81463;-66
2022/02/23 08:25:58;;;;;;;10.70;3.70;;;;;;;7.00;83.38;100020.21;89406;1281;99842;-69
2022/02/23 08:28:04;;;;;;;14.40;3.70;;;;;;;6.95;83.02;100022.38;89414;1281;86929;-69
2022/02/23 08:30:13;;;;;;;12.20;3.80;;;;;;;6.92;82.84;100025.10;89396;1279;95274;-69
2022/02/23 08:32:20;;;;;;;13.00;4.00;;;;;;;6.93;82.55;100026.21;89382;1280;78603;-69
2022/02/23 08:34:26;;;;;;;11.20;4.40;;;;;;;6.96;82.62;100024.39;89426;1280;81028;-68
2022/02/23 08:36:35;;;;;;;15.90;5.00;;;;;;;7.07;82.43;100034.39;89420;1279;99409;-68
2022/02/23 08:38:41;;;;;;;17.90;4.50;;;;;;;7.09;81.87;100032.20;89407;1279;86365;-82
2022/02/23 08:40:52;;;;;;;14.20;4.00;;;;;;;7.08;81.62;100035.78;89409;1279;95346;-85
2022/02/23 08:43:01;;;;;;;14.80;3.70;;;;;;;7.12;81.56;100031.12;89397;1279;79904;-79
2022/02/23 08:45:11;;;;;;;13.80;3.60;;;;;;;7.09;81.39;100040.85;89395;1279;82557;-68
2022/02/23 08:47:23;;;;;;;12.60;3.20;;;;;;;7.16;81.18;100045.77;89335;1281;99450;-66
2022/02/23 08:49:32;;;;;;;12.20;3.50;;;;;;;7.21;80.75;100043.05;89375;1279;88944;-66
2022/02/23 08:51:41;;;;;;;9.30;2.90;;;;;;;7.19;80.65;100052.64;89306;1281;94651;-66
2022/02/23 08:53:47;;;;;;;7.30;2.80;;;;;;;7.24;80.88;100052.56;89271;1281;80293;-77
2022/02/23 08:55:52;;;;;;;12.20;3.50;;;;;;;7.34;80.74;100055.35;89372;1280;84810;-79
2022/02/23 08:58:01;;;;;;;11.80;3.20;;;;;;;7.44;80.52;100057.56;89403;1279;100094;-76
2022/02/23 09:00:11;;;;;;;11.50;3.00;;;;;;;7.49;80.27;100063.16;89400;1279;87961;-79
2022/02/23 09:02:16;;;;;;;16.40;4.40;;;;;;;7.45;79.74;100062.89;89198;1280;94010;-75
2022/02/23 09:04:25;;;;;;;16.30;3.60;;;;;;;7.49;79.59;100060.94;89412;1279;81242;-66
2022/02/23 09:06:32;;;;;;;14.40;4.70;;;;;;;7.72;79.46;100069.66;89315;1281;83278;-66
2022/02/23 09:08:41;;;;;;;13.90;4.60;;;;;;;7.95;79.35;100065.16;89352;1279;97777;-68
2022/02/23 09:10:50;;;;;;;12.10;3.70;;;;;;;8.06;79.04;100064.39;89392;1280;87685;-69
2022/02/23 09:12:56;;;;;;;12.30;4.00;;;;;;;8.05;78.36;100065.51;89569;1277;95333;-65
2022/02/23 09:15:02;;;;;;;10.00;3.90;;;;;;;8.08;78.20;100067.49;89373;1280;81241;-69
2022/02/23 09:17:10;;;;;;;12.50;4.10;;;;;;;8.20;78.13;100074.30;89568;1277;81755;-66
2022/02/23 09:19:19;;;;;;;14.60;4.10;;;;;;;8.31;77.60;100070.69;89582;1277;100030;-65
2022/02/23 09:21:24;;;;;;;12.70;3.90;;;;;;;8.24;77.05;100078.83;89542;1277;90246;-66
2022/02/23 09:23:40;;;;;;;14.50;4.20;;;;;;;8.18;76.93;100077.20;89564;1277;93385;-70
2022/02/23 09:25:48;;;;;;;12.70;5.00;;;;;;;7.98;76.26;100083.29;89575;1277;77986;-74
2022/02/23 09:27:54;;;;;;;12.40;4.40;;;;;;;7.90;76.10;100088.73;89584;1277;81079;-81
2022/02/23 09:30:04;;;;;;;13.90;4.60;;;;;;;7.93;76.16;100087.30;89558;1277;99564;-81
2022/02/23 09:32:09;;;;;;;13.70;4.50;;;;;;;8.35;76.54;100081.96;89591;1277;88116;-78
2022/02/23 09:34:18;;;;;;;17.90;4.50;;;;;;;8.77;76.34;100084.80;89569;1277;95594;-62
2022/02/23 09:36:24;;;;;;;12.90;4.10;;;;;;;9.17;75.74;100091.11;89555;1277;79424;-66
2022/02/23 09:38:35;;;;;;;14.40;4.90;;;;;;;9.67;75.13;100093.62;89568;1277;80601;-64
2022/02/23 09:40:42;;;;;;;14.60;3.90;;;;;;;9.63;74.28;100093.88;89576;1277;98788;-63
2022/02/23 09:42:50;;;;;;;16.40;5.20;;;;;;;9.38;73.45;100096.90;89573;1277;88336;-65
2022/02/23 09:44:59;;;;;;;13.80;4.60;;;;;;;8.96;73.37;100105.63;89555;1277;95270;-65
2022/02/23 09:47:06;;;;;;;13.80;4.50;;;;;;;8.74;73.21;100105.99;89559;1277;81171;-65
2022/02/23 09:49:15;;;;;;;11.40;3.90;;;;;;;8.56;73.17;100112.14;89545;1277;82821;-64
2022/02/23 09:51:25;;;;;;;12.70;4.50;;;;;;;8.42;72.93;100116.54;89552;1277;99906;-65
2022/02/23 09:53:44;;;;;;;14.90;4.40;;;;;;;8.47;73.19;100120.34;89555;1277;88926;-66
2022/02/23 09:55:57;;;;;;;14.80;4.80;;;;;;;8.50;73.02;100122.99;89562;1277;94525;-65
2022/02/23 09:58:02;;;;;;;18.50;5.60;;;;;;;8.36;73.13;100116.10;89537;1277;78557;-64
2022/02/23 10:00:14;;;;;;;13.20;4.90;;;;;;;8.41;73.35;100122.67;89569;1277;81236;-81